Roza A — TCRB7 — position and weather

sailwx.info

Track history (hours):
 
Tides and Currents Weather Stations Pressure Air Temp Water Temp Dewpoint Dewpoint Depression Visibility Wind Speed Wind Dir Waves Ship Positions

Roza A

Last reported at 2015-Jul-05 12:19 UTC. Time now 2015-Jul-05 17:34 UTC.
Position N 39°24' W 000°16'.

Length 169 m; draft 6.6 m.

Type: Ship (hazmat cat A). MMSI: 271001057.

Date/timePositionNaut miles runAvg speedWind from/ knotsBaromVisibWave heightAir tempDewpointWater temp
2015-Jul-05 12:19N 39°24' W 000°16'0 0.0
2015-Jul-05 11:13N 39°24' W 000°16'0 0.1
2015-Jul-05 09:25N 39°24' W 000°16'0 0.0
2015-Jul-05 08:31N 39°24' W 000°16'0 0.0
2015-Jul-05 07:31N 39°24' W 000°16'0 0.0
2015-Jul-05 05:31N 39°24' W 000°16'0 0.0
2015-Jul-05 04:31N 39°24' W 000°16'0 0.0
2015-Jul-05 03:25N 39°24' W 000°16'0 0.0
2015-Jul-05 00:19N 39°24' W 000°16'0 0.0
2015-Jul-04 23:31N 39°24' W 000°16'0 0.0
2015-Jul-04 22:31N 39°24' W 000°16'0 0.0
2015-Jul-04 20:25N 39°24' W 000°16'0 0.0
2015-Jul-04 19:13N 39°24' W 000°16'0 0.0
2015-Jul-04 18:31N 39°24' W 000°16'0 0.0
2015-Jul-04 17:31N 39°24' W 000°16'0 0.0
2015-Jul-04 16:25N 39°24' W 000°16'0 0.0
2015-Jul-04 15:31N 39°24' W 000°16'0 0.0
2015-Jul-04 14:31N 39°24' W 000°16'0 0.0
2015-Jul-04 13:25N 39°24' W 000°16'0 0.0
2015-Jul-04 12:32N 39°24' W 000°16'5 4.9
2015-Jul-04 11:33N 39°24' W 000°10'4711.6
2015-Jul-04 07:29N 39°16' E 000°50'3411.3
2015-Jul-04 04:29N 39°10' E 001°33'1111.3
2015-Jul-04 03:33N 39°08' E 001°46'1111.2
2015-Jul-04 02:33N 39°07' E 002°01'1111.2
2015-Jul-04 01:32N 39°05' E 002°15'1111.0
2015-Jul-04 00:32N 39°04' E 002°29'1111.0
2015-Jul-03 23:33N 39°03' E 002°43'1111.2
2015-Jul-03 22:33N 39°02' E 002°58'1111.1
2015-Jul-03 21:33N 39°02' E 003°12'1110.9
2015-Jul-03 20:33N 39°01' E 003°26'1111.2
2015-Jul-03 19:33N 39°01' E 003°40'1111.2
2015-Jul-03 18:33N 38°60' E 003°55'1111.4
2015-Jul-03 17:33N 38°59' E 004°09'1111.1
2015-Jul-03 16:33N 38°58' E 004°23'1111.1
2015-Jul-03 15:33N 38°57' E 004°38'1110.9
2015-Jul-03 14:30N 38°57' E 004°52'3411.1
2015-Jul-03 11:24N 38°55' E 005°37'1211.0
2015-Jul-03 10:20N 38°54' E 005°52'2010.8
2015-Jul-03 08:31N 38°53' E 006°17'5511.1
2015-Jul-03 03:32N 38°49' E 007°27'1111.2
2015-Jul-03 02:32N 38°49' E 007°42'1111.2
2015-Jul-03 01:33N 38°48' E 007°56'3711.4
2015-Jul-02 22:17N 38°48' E 008°44'911.8
2015-Jul-02 21:33N 38°50' E 008°54'1111.4
2015-Jul-02 20:33N 38°58' E 009°05'1010.2
2015-Jul-02 19:34N 39°08' E 009°06'5 4.8
2015-Jul-02 18:33N 39°13' E 009°04'0 0.0
2015-Jul-02 17:33N 39°13' E 009°04'0 0.0
2015-Jul-02 16:33N 39°13' E 009°04'0 0.0
2015-Jul-02 15:33N 39°13' E 009°04'0 0.0
2015-Jul-02 14:33N 39°13' E 009°04'0 0.0
2015-Jul-02 13:33N 39°13' E 009°04'0 0.0
2015-Jul-02 12:33N 39°13' E 009°04'0 0.0
2015-Jul-02 11:33N 39°13' E 009°04'0 0.0
2015-Jul-02 10:33N 39°13' E 009°04'2 2.0
2015-Jul-02 09:33N 39°11' E 009°06'7 6.7
2015-Jul-02 08:34N 39°05' E 009°10'8 8.0
2015-Jul-02 07:32N 39°01' E 009°19'1111.4
2015-Jul-02 06:33N 38°55' E 009°31'1210.9
2015-Jul-02 05:30N 38°49' E 009°44'1010.8
2015-Jul-02 04:33N 38°44' E 009°55'1110.7
2015-Jul-02 03:33N 38°38' E 010°07'1110.8
2015-Jul-02 02:33N 38°32' E 010°18'1110.9
2015-Jul-02 01:33N 38°27' E 010°30'1110.6
2015-Jul-02 00:33N 38°21' E 010°42'1010.3
2015-Jul-01 23:33N 38°16' E 010°53'1010.4
2015-Jul-01 22:33N 38°10' E 011°04'1010.1
2015-Jul-01 21:33N 38°05' E 011°15'1111.1
2015-Jul-01 20:33N 37°59' E 011°27'1211.7
2015-Jul-01 19:33N 37°52' E 011°39'1111.0
2015-Jul-01 18:33N 37°46' E 011°50'1010.4
2015-Jul-01 17:33N 37°39' E 012°01'1110.7
2015-Jul-01 16:33N 37°34' E 012°12'1111.1
2015-Jul-01 15:33N 37°27' E 012°24'1110.6
2015-Jul-01 14:33N 37°21' E 012°35'1110.6
2015-Jul-01 13:33N 37°15' E 012°45'1211.7
2015-Jul-01 12:33N 37°10' E 012°59'1313.1
2015-Jul-01 11:33N 37°05' E 013°14'1110.7
2015-Jul-01 10:33N 37°01' E 013°26'1010.0
2015-Jul-01 09:33N 36°57' E 013°38'10 9.9
2015-Jul-01 08:33N 36°53' E 013°49'1110.8
2015-Jul-01 07:33N 36°49' E 014°01'1111.0
2015-Jul-01 06:33N 36°45' E 014°14'1110.8
2015-Jul-01 05:33N 36°41' E 014°27'1110.7
2015-Jul-01 04:33N 36°37' E 014°39'1110.7
2015-Jul-01 03:33N 36°34' E 014°52'1110.9
2015-Jul-01 02:33N 36°32' E 015°06'1111.0
2015-Jul-01 01:33N 36°32' E 015°19'1110.6
2015-Jul-01 00:29N 36°31' E 015°33'910.0
2015-Jun-30 23:33N 36°31' E 015°45'10 9.9
2015-Jun-30 22:33N 36°30' E 015°57'10 9.9
2015-Jun-30 21:33N 36°30' E 016°10'1010.2
2015-Jun-30 20:33N 36°30' E 016°22'389 9.7
2015-Jun-29 04:32N 37°46' E 024°20'1110.8
2015-Jun-29 03:30N 37°54' E 024°31'  
2015-Jun-26 07:32N 40°25' E 029°05'0 0.4
2015-Jun-26 06:33N 40°25' E 029°04'1510.7
2015-Jun-26 05:12N 40°29' E 028°46'710.2
2015-Jun-26 04:33N 40°35' E 028°45'1414.5
2015-Jun-26 03:33N 40°42' E 029°02'1414.0
2015-Jun-26 02:33N 40°44' E 029°20'1111.2
2015-Jun-26 01:33N 40°45' E 029°35'  
Track history (hours):
 
Tides and Currents Weather Stations Pressure Air Temp Water Temp Dewpoint Dewpoint Depression Visibility Wind Speed Wind Dir Waves Ship Positions

Roza A

Last reported at 2015-Jul-05 12:19 UTC. Time now 2015-Jul-05 17:34 UTC.
Position N 39°24' W 000°16'.

Length 169 m; draft 6.6 m.

Type: Ship (hazmat cat A). MMSI: 271001057.

Date/timePositionNaut miles runAvg speedWind from/ knotsBaromVisibWave heightAir tempDewpointWater temp
2015-Jul-05 12:19N 39°24' W 000°16'0 0.0
2015-Jul-05 11:13N 39°24' W 000°16'0 0.1
2015-Jul-05 09:25N 39°24' W 000°16'0 0.0
2015-Jul-05 08:31N 39°24' W 000°16'0 0.0
2015-Jul-05 07:31N 39°24' W 000°16'0 0.0
2015-Jul-05 05:31N 39°24' W 000°16'0 0.0
2015-Jul-05 04:31N 39°24' W 000°16'0 0.0
2015-Jul-05 03:25N 39°24' W 000°16'0 0.0
2015-Jul-05 00:19N 39°24' W 000°16'0 0.0
2015-Jul-04 23:31N 39°24' W 000°16'0 0.0
2015-Jul-04 22:31N 39°24' W 000°16'0 0.0
2015-Jul-04 20:25N 39°24' W 000°16'0 0.0
2015-Jul-04 19:13N 39°24' W 000°16'0 0.0
2015-Jul-04 18:31N 39°24' W 000°16'0 0.0
2015-Jul-04 17:31N 39°24' W 000°16'0 0.0
2015-Jul-04 16:25N 39°24' W 000°16'0 0.0
2015-Jul-04 15:31N 39°24' W 000°16'0 0.0
2015-Jul-04 14:31N 39°24' W 000°16'0 0.0
2015-Jul-04 13:25N 39°24' W 000°16'0 0.0
2015-Jul-04 12:32N 39°24' W 000°16'5 4.9
2015-Jul-04 11:33N 39°24' W 000°10'4711.6
2015-Jul-04 07:29N 39°16' E 000°50'3411.3
2015-Jul-04 04:29N 39°10' E 001°33'1111.3
2015-Jul-04 03:33N 39°08' E 001°46'1111.2
2015-Jul-04 02:33N 39°07' E 002°01'1111.2
2015-Jul-04 01:32N 39°05' E 002°15'1111.0
2015-Jul-04 00:32N 39°04' E 002°29'1111.0
2015-Jul-03 23:33N 39°03' E 002°43'1111.2
2015-Jul-03 22:33N 39°02' E 002°58'1111.1
2015-Jul-03 21:33N 39°02' E 003°12'1110.9
2015-Jul-03 20:33N 39°01' E 003°26'1111.2
2015-Jul-03 19:33N 39°01' E 003°40'1111.2
2015-Jul-03 18:33N 38°60' E 003°55'1111.4
2015-Jul-03 17:33N 38°59' E 004°09'1111.1
2015-Jul-03 16:33N 38°58' E 004°23'1111.1
2015-Jul-03 15:33N 38°57' E 004°38'1110.9
2015-Jul-03 14:30N 38°57' E 004°52'3411.1
2015-Jul-03 11:24N 38°55' E 005°37'1211.0
2015-Jul-03 10:20N 38°54' E 005°52'2010.8
2015-Jul-03 08:31N 38°53' E 006°17'5511.1
2015-Jul-03 03:32N 38°49' E 007°27'1111.2
2015-Jul-03 02:32N 38°49' E 007°42'1111.2
2015-Jul-03 01:33N 38°48' E 007°56'3711.4
2015-Jul-02 22:17N 38°48' E 008°44'911.8
2015-Jul-02 21:33N 38°50' E 008°54'1111.4
2015-Jul-02 20:33N 38°58' E 009°05'1010.2
2015-Jul-02 19:34N 39°08' E 009°06'5 4.8
2015-Jul-02 18:33N 39°13' E 009°04'0 0.0
2015-Jul-02 17:33N 39°13' E 009°04'0 0.0
2015-Jul-02 16:33N 39°13' E 009°04'0 0.0
2015-Jul-02 15:33N 39°13' E 009°04'0 0.0
2015-Jul-02 14:33N 39°13' E 009°04'0 0.0
2015-Jul-02 13:33N 39°13' E 009°04'0 0.0
2015-Jul-02 12:33N 39°13' E 009°04'0 0.0
2015-Jul-02 11:33N 39°13' E 009°04'0 0.0
2015-Jul-02 10:33N 39°13' E 009°04'2 2.0
2015-Jul-02 09:33N 39°11' E 009°06'7 6.7
2015-Jul-02 08:34N 39°05' E 009°10'8 8.0
2015-Jul-02 07:32N 39°01' E 009°19'1111.4
2015-Jul-02 06:33N 38°55' E 009°31'1210.9
2015-Jul-02 05:30N 38°49' E 009°44'1010.8
2015-Jul-02 04:33N 38°44' E 009°55'1110.7
2015-Jul-02 03:33N 38°38' E 010°07'1110.8
2015-Jul-02 02:33N 38°32' E 010°18'1110.9
2015-Jul-02 01:33N 38°27' E 010°30'1110.6
2015-Jul-02 00:33N 38°21' E 010°42'1010.3
2015-Jul-01 23:33N 38°16' E 010°53'1010.4
2015-Jul-01 22:33N 38°10' E 011°04'1010.1
2015-Jul-01 21:33N 38°05' E 011°15'1111.1
2015-Jul-01 20:33N 37°59' E 011°27'1211.7
2015-Jul-01 19:33N 37°52' E 011°39'1111.0
2015-Jul-01 18:33N 37°46' E 011°50'1010.4
2015-Jul-01 17:33N 37°39' E 012°01'1110.7
2015-Jul-01 16:33N 37°34' E 012°12'1111.1
2015-Jul-01 15:33N 37°27' E 012°24'1110.6
2015-Jul-01 14:33N 37°21' E 012°35'1110.6
2015-Jul-01 13:33N 37°15' E 012°45'1211.7
2015-Jul-01 12:33N 37°10' E 012°59'1313.1
2015-Jul-01 11:33N 37°05' E 013°14'1110.7
2015-Jul-01 10:33N 37°01' E 013°26'1010.0
2015-Jul-01 09:33N 36°57' E 013°38'10 9.9
2015-Jul-01 08:33N 36°53' E 013°49'1110.8
2015-Jul-01 07:33N 36°49' E 014°01'1111.0
2015-Jul-01 06:33N 36°45' E 014°14'1110.8
2015-Jul-01 05:33N 36°41' E 014°27'1110.7
2015-Jul-01 04:33N 36°37' E 014°39'1110.7
2015-Jul-01 03:33N 36°34' E 014°52'1110.9
2015-Jul-01 02:33N 36°32' E 015°06'1111.0
2015-Jul-01 01:33N 36°32' E 015°19'1110.6
2015-Jul-01 00:29N 36°31' E 015°33'910.0
2015-Jun-30 23:33N 36°31' E 015°45'10 9.9
2015-Jun-30 22:33N 36°30' E 015°57'10 9.9
2015-Jun-30 21:33N 36°30' E 016°10'1010.2
2015-Jun-30 20:33N 36°30' E 016°22'389 9.7
2015-Jun-29 04:32N 37°46' E 024°20'1110.8
2015-Jun-29 03:30N 37°54' E 024°31'  
2015-Jun-26 07:32N 40°25' E 029°05'0 0.4
2015-Jun-26 06:33N 40°25' E 029°04'1510.7
2015-Jun-26 05:12N 40°29' E 028°46'710.2
2015-Jun-26 04:33N 40°35' E 028°45'1414.5
2015-Jun-26 03:33N 40°42' E 029°02'1414.0
2015-Jun-26 02:33N 40°44' E 029°20'1111.2
2015-Jun-26 01:33N 40°45' E 029°35'  

Dump ship's entire track history